Sakata, Japan
Current Conditions -  °F | °C
As of 9:00 AM on Thursday 23 Oct 2014 (Local Time) from RJSY Reporting Station
Scattered Clouds Scattered Clouds  
Wind Chill: 52°   Ceiling: Unl
Heat Index: 52°   Visibility: 6mi
Dew Point: 43°   Wind: 5mph
Humidity: 71%   Direction: 80°E
Pressure: 30.12"   Gusts: NA
Location:  38.91°N, 139.83°E
Report Text: RJSY 230000Z 08004KT 9999 FEW025 SCT/// 11/06 Q1020
Loading
Personal Weather Stations






























Interactive Weather Map
Tropical Storm Tracking
New forecast layout! Learn more

10-Day Weather Forecast

Advertisements
Track Severe Weather on mobile